createdAt,value
2022-08-25T00:01:44.523Z,75.10
2022-08-25T00:04:15.335Z,75.10
2022-08-25T00:06:43.711Z,75.10
2022-08-25T00:09:12.650Z,75.00
2022-08-25T00:11:39.983Z,74.80
2022-08-25T00:14:11.352Z,74.80
2022-08-25T00:16:38.332Z,74.80
2022-08-25T00:19:10.127Z,74.90
2022-08-25T00:21:36.900Z,75.10
2022-08-25T00:24:04.196Z,75.20
2022-08-25T00:26:31.371Z,74.70
2022-08-25T00:29:01.951Z,75.20
2022-08-25T00:31:37.764Z,75.30
2022-08-25T00:34:08.269Z,75.40
2022-08-25T00:36:35.306Z,75.20
2022-08-25T00:39:02.028Z,75.30
2022-08-25T00:41:28.824Z,75.30
2022-08-25T00:43:59.152Z,75.50
2022-08-25T00:46:39.691Z,75.50
2022-08-25T00:49:20.888Z,76.20
2022-08-25T00:52:00.626Z,75.50
2022-08-25T00:54:33.263Z,75.50
2022-08-25T00:57:01.057Z,75.40
2022-08-25T00:59:28.788Z,75.50
2022-08-25T01:01:55.831Z,75.40
2022-08-25T01:04:22.578Z,75.40
2022-08-25T01:06:49.544Z,75.40
2022-08-25T01:09:16.847Z,75.40
2022-08-25T01:11:44.763Z,75.50
2022-08-25T01:14:14.654Z,75.50
2022-08-25T01:16:43.505Z,75.60
2022-08-25T01:19:15.528Z,75.70
2022-08-25T01:21:49.205Z,75.90
2022-08-25T01:24:40.925Z,76.00
2022-08-25T01:27:07.997Z,75.80
2022-08-25T01:29:35.924Z,75.20
2022-08-25T01:32:06.080Z,75.80
2022-08-25T01:34:38.384Z,75.80
2022-08-25T01:37:05.302Z,75.80
2022-08-25T01:39:38.992Z,75.70
2022-08-25T01:42:33.435Z,75.70
2022-08-25T01:45:00.013Z,75.60
2022-08-25T01:47:26.591Z,75.50
2022-08-25T01:49:53.209Z,75.40
2022-08-25T01:52:25.469Z,75.40
2022-08-25T01:54:52.073Z,75.40
2022-08-25T01:57:18.669Z,75.30
2022-08-25T01:59:45.802Z,75.20
2022-08-25T02:02:12.560Z,75.20
2022-08-25T02:04:39.518Z,75.30
2022-08-25T02:07:08.899Z,75.20
2022-08-25T02:09:36.990Z,75.20
2022-08-25T02:12:04.107Z,75.20
2022-08-25T02:14:30.861Z,75.10
2022-08-25T02:16:57.720Z,75.20
2022-08-25T02:19:26.034Z,75.20
2022-08-25T02:21:53.045Z,75.30
2022-08-25T02:24:19.637Z,75.20
2022-08-25T02:26:46.299Z,75.30
2022-08-25T02:29:13.541Z,75.40
2022-08-25T02:31:40.785Z,75.40
2022-08-25T02:34:09.032Z,75.20
2022-08-25T02:36:37.281Z,75.30
2022-08-25T02:39:06.357Z,75.30
2022-08-25T02:41:33.586Z,75.20
2022-08-25T02:44:01.516Z,75.10
2022-08-25T02:50:09.451Z,75.10
2022-08-25T02:52:36.660Z,75.20
2022-08-25T02:55:06.017Z,75.20
2022-08-25T02:57:32.725Z,75.20
2022-08-25T02:59:59.340Z,75.20
2022-08-25T03:02:26.661Z,75.30
2022-08-25T03:04:55.123Z,75.40
2022-08-25T03:07:21.894Z,75.50
2022-08-25T03:09:51.451Z,75.50
2022-08-25T03:12:18.496Z,75.60
2022-08-25T03:14:45.455Z,75.60
2022-08-25T03:17:13.238Z,75.50
2022-08-25T03:19:39.910Z,75.50
2022-08-25T03:22:06.690Z,75.50
2022-08-25T03:24:33.285Z,75.50
2022-08-25T03:27:00.089Z,75.40
2022-08-25T03:29:30.088Z,75.50
2022-08-25T03:32:00.933Z,75.40
2022-08-25T03:34:30.102Z,75.50
2022-08-25T03:36:57.913Z,75.60
2022-08-25T03:39:26.148Z,75.70
2022-08-25T03:41:53.838Z,75.60
2022-08-25T03:44:21.696Z,75.60
2022-08-25T03:46:51.016Z,75.30
2022-08-25T03:49:20.928Z,75.30
2022-08-25T03:51:50.353Z,75.20
2022-08-25T03:54:20.484Z,75.30
2022-08-25T03:56:47.546Z,75.30
2022-08-25T03:59:14.177Z,75.30
2022-08-25T04:01:42.506Z,75.30
2022-08-25T04:04:11.385Z,75.30
2022-08-25T04:06:39.083Z,75.20
2022-08-25T04:09:06.271Z,75.30
2022-08-25T04:11:32.893Z,75.10
2022-08-25T04:14:01.171Z,75.10
2022-08-25T04:16:31.919Z,75.10
2022-08-25T04:19:00.381Z,75.20
2022-08-25T04:21:27.091Z,75.10
2022-08-25T04:23:55.145Z,75.10
2022-08-25T04:26:29.016Z,74.90
2022-08-25T04:28:58.118Z,74.80
2022-08-25T04:31:24.821Z,75.80
2022-08-25T04:33:51.515Z,76.30
2022-08-25T04:36:19.543Z,76.70
2022-08-25T04:38:48.290Z,76.70
2022-08-25T04:41:16.665Z,76.40
2022-08-25T04:43:44.289Z,77.10
2022-08-25T04:46:20.281Z,76.80
2022-08-25T04:48:48.725Z,77.40
2022-08-25T04:51:17.996Z,77.70
2022-08-25T04:53:45.017Z,77.50
2022-08-25T04:56:14.867Z,77.60
2022-08-25T04:58:42.619Z,77.50
2022-08-25T05:01:17.879Z,77.00
2022-08-25T05:03:46.991Z,77.80
2022-08-25T05:06:16.213Z,77.70
2022-08-25T05:08:45.756Z,77.70
2022-08-25T05:11:15.039Z,77.20
2022-08-25T05:13:42.588Z,76.90
2022-08-25T05:16:09.865Z,76.70
2022-08-25T05:18:38.358Z,76.40
2022-08-25T05:21:14.315Z,76.40
2022-08-25T05:23:42.026Z,76.40
2022-08-25T05:26:20.464Z,76.40
2022-08-25T05:28:51.493Z,76.40
2022-08-25T05:31:19.788Z,76.40
2022-08-25T05:33:47.090Z,76.40
2022-08-25T05:36:15.916Z,76.60
2022-08-25T05:38:43.103Z,76.40
2022-08-25T05:41:18.686Z,76.40
2022-08-25T05:43:47.975Z,76.60
2022-08-25T05:46:16.307Z,76.70
2022-08-25T05:48:43.100Z,76.70
2022-08-25T05:51:11.498Z,76.80
2022-08-25T05:53:41.390Z,76.80
2022-08-25T05:56:09.117Z,76.80
2022-08-25T05:58:36.986Z,76.90
2022-08-25T06:01:22.969Z,76.90
2022-08-25T06:03:53.182Z,77.00
2022-08-25T06:06:21.495Z,76.50
2022-08-25T06:08:48.253Z,77.10
2022-08-25T06:11:16.338Z,77.10
2022-08-25T06:13:43.354Z,77.10
2022-08-25T06:16:10.205Z,77.20
2022-08-25T06:18:39.472Z,77.30
2022-08-25T06:21:12.612Z,77.10
2022-08-25T06:23:40.572Z,77.30
2022-08-25T06:26:10.279Z,77.30
2022-08-25T06:28:40.318Z,77.30
2022-08-25T06:31:07.222Z,77.50
2022-08-25T06:33:34.128Z,77.60
2022-08-25T06:36:01.198Z,77.70
2022-08-25T06:38:28.060Z,77.70
2022-08-25T06:40:57.352Z,77.80
2022-08-25T06:43:24.181Z,77.80
2022-08-25T06:45:50.956Z,77.80
2022-08-25T06:48:17.658Z,77.90
2022-08-25T06:50:44.680Z,77.90
2022-08-25T06:53:12.049Z,77.90
2022-08-25T06:55:39.261Z,77.80
2022-08-25T06:58:06.156Z,77.80
2022-08-25T07:00:38.056Z,77.70
2022-08-25T07:03:04.960Z,77.70
2022-08-25T07:05:42.866Z,77.50
2022-08-25T07:08:11.711Z,77.10
2022-08-25T07:10:38.721Z,77.40
2022-08-25T07:13:05.320Z,77.00
2022-08-25T07:15:31.917Z,77.00
2022-08-25T07:17:58.643Z,77.10
2022-08-25T07:22:58.017Z,77.10
2022-08-25T07:25:24.749Z,77.10
2022-08-25T07:27:53.798Z,77.20
2022-08-25T07:30:23.367Z,77.20
2022-08-25T07:32:54.797Z,77.20
2022-08-25T07:35:24.525Z,77.10
2022-08-25T07:37:58.135Z,77.00
2022-08-25T07:40:29.457Z,77.00
2022-08-25T07:42:58.944Z,77.00
2022-08-25T07:45:31.735Z,77.10
2022-08-25T07:48:01.209Z,77.10
2022-08-25T07:50:29.542Z,77.10
2022-08-25T07:52:57.409Z,77.00
2022-08-25T07:55:25.938Z,76.80
2022-08-25T07:57:57.184Z,76.90
2022-08-25T08:00:27.602Z,77.00
2022-08-25T08:02:54.642Z,77.10
2022-08-25T08:05:21.441Z,77.00
2022-08-25T08:07:51.450Z,77.10
2022-08-25T08:11:00.615Z,77.10
2022-08-25T08:13:07.424Z,77.10
2022-08-25T08:15:34.929Z,76.40
2022-08-25T08:18:01.945Z,76.90
2022-08-25T08:20:42.374Z,76.90
2022-08-25T08:23:10.280Z,76.90
2022-08-25T08:25:36.985Z,77.00
2022-08-25T08:28:03.865Z,77.00
2022-08-25T08:30:34.353Z,77.00
2022-08-25T08:33:11.152Z,77.10
2022-08-25T08:35:39.454Z,77.10
2022-08-25T08:38:13.147Z,77.10
2022-08-25T08:41:17.421Z,77.20
2022-08-25T08:44:03.055Z,77.30
2022-08-25T08:46:50.613Z,77.20
2022-08-25T08:49:38.980Z,77.30
2022-08-25T08:52:08.697Z,77.50
2022-08-25T08:54:39.420Z,77.70
2022-08-25T08:57:17.466Z,77.60
2022-08-25T08:59:50.088Z,77.70
2022-08-25T09:02:38.775Z,77.80
2022-08-25T09:05:19.116Z,77.80
2022-08-25T09:07:54.602Z,77.80
2022-08-25T09:10:24.468Z,78.10
2022-08-25T09:13:16.431Z,78.00
2022-08-25T09:16:31.676Z,78.10
2022-08-25T09:19:32.059Z,78.10
2022-08-25T09:22:35.682Z,78.10
2022-08-25T09:25:29.596Z,78.00
2022-08-25T09:28:26.771Z,78.20
2022-08-25T09:31:03.260Z,78.10
2022-08-25T09:33:35.491Z,78.00
2022-08-25T09:36:05.940Z,78.10
2022-08-25T09:38:33.615Z,78.00
2022-08-25T09:41:01.520Z,77.90
2022-08-25T09:43:54.052Z,78.30
2022-08-25T09:46:27.131Z,78.10
2022-08-25T09:48:57.471Z,78.00
2022-08-25T09:51:27.513Z,78.20
2022-08-25T09:54:10.690Z,78.30
2022-08-25T09:56:55.465Z,78.50
2022-08-25T09:59:34.991Z,78.80
2022-08-25T10:02:28.327Z,78.50
2022-08-25T10:04:56.017Z,78.90
2022-08-25T10:07:35.284Z,78.90
2022-08-25T10:10:07.562Z,78.80
2022-08-25T10:12:51.034Z,78.70
2022-08-25T10:15:29.905Z,78.70
2022-08-25T10:18:17.252Z,78.60
2022-08-25T10:20:44.519Z,78.50
2022-08-25T10:23:14.080Z,78.50
2022-08-25T10:25:59.452Z,78.00
2022-08-25T10:28:35.690Z,78.40
2022-08-25T10:31:02.264Z,78.70
2022-08-25T10:33:37.648Z,79.20
2022-08-25T10:36:13.785Z,79.70
2022-08-25T10:38:53.826Z,79.70
2022-08-25T10:41:38.790Z,79.60
2022-08-25T10:45:21.765Z,79.30
2022-08-25T10:47:57.603Z,79.60
2022-08-25T10:50:32.961Z,79.40
2022-08-25T10:53:23.630Z,79.30
2022-08-25T10:56:21.160Z,79.80
2022-08-25T10:59:07.127Z,80.00
2022-08-25T11:01:53.696Z,79.70
2022-08-25T11:04:27.569Z,79.80
2022-08-25T11:07:03.138Z,79.80
2022-08-25T11:09:42.641Z,79.80
2022-08-25T11:12:11.276Z,79.80
2022-08-25T11:14:43.652Z,79.80
2022-08-25T11:17:45.123Z,80.10
2022-08-25T11:20:26.731Z,79.90
2022-08-25T11:23:06.614Z,80.40
2022-08-25T11:25:45.926Z,80.30
2022-08-25T11:28:43.300Z,80.30
2022-08-25T11:31:10.776Z,80.00
2022-08-25T11:33:39.353Z,80.20
2022-08-25T11:36:32.331Z,80.20
2022-08-25T11:39:26.590Z,80.10
2022-08-25T11:42:04.415Z,80.00
2022-08-25T11:44:38.093Z,79.90
2022-08-25T11:47:21.485Z,79.90
2022-08-25T11:49:51.479Z,80.00
2022-08-25T11:52:45.921Z,80.00
2022-08-25T11:55:17.398Z,79.90
2022-08-25T11:57:53.572Z,79.90
2022-08-25T12:00:45.612Z,79.90
2022-08-25T12:03:34.972Z,79.80
2022-08-25T12:06:30.318Z,79.90
2022-08-25T12:09:00.088Z,80.00
2022-08-25T12:11:39.753Z,79.90
2022-08-25T12:14:28.127Z,79.80
2022-08-25T12:16:55.201Z,79.80
2022-08-25T12:19:29.099Z,79.80
2022-08-25T12:22:22.125Z,79.80
2022-08-25T12:24:56.000Z,79.70
2022-08-25T12:27:39.928Z,79.90
2022-08-25T12:30:40.218Z,80.00
2022-08-25T12:33:26.230Z,79.80
2022-08-25T12:36:03.290Z,80.90
2022-08-25T12:38:49.573Z,80.30
2022-08-25T12:41:24.361Z,80.10
2022-08-25T12:43:54.321Z,80.30
2022-08-25T12:46:25.573Z,80.40
2022-08-25T12:49:29.063Z,80.50
2022-08-25T12:52:04.706Z,80.50
2022-08-25T12:54:48.670Z,80.50
2022-08-25T12:57:44.773Z,80.50
2022-08-25T13:00:23.462Z,81.00
2022-08-25T13:03:14.457Z,80.40
2022-08-25T13:05:58.341Z,79.90
2022-08-25T13:08:47.958Z,79.90
2022-08-25T13:11:35.162Z,80.10
2022-08-25T13:14:17.769Z,80.20
2022-08-25T13:16:59.097Z,80.20
2022-08-25T13:19:35.107Z,80.10
2022-08-25T13:22:15.612Z,80.10
2022-08-25T13:24:45.388Z,80.10
2022-08-25T13:27:28.432Z,80.10
2022-08-25T13:29:58.149Z,80.00
2022-08-25T13:32:32.501Z,80.10
2022-08-25T13:35:17.706Z,80.10
2022-08-25T13:40:26.420Z,80.00
2022-08-25T13:43:05.893Z,80.10
2022-08-25T13:45:40.927Z,80.00
2022-08-25T13:48:23.036Z,80.10
2022-08-25T13:50:53.140Z,80.00
2022-08-25T13:53:26.204Z,80.00
2022-08-25T13:56:00.530Z,80.10
2022-08-25T13:58:32.519Z,80.00
2022-08-25T14:01:49.185Z,80.10
2022-08-25T14:04:33.032Z,80.00
2022-08-25T14:07:19.464Z,80.10
2022-08-25T14:09:52.205Z,80.20
2022-08-25T14:12:39.850Z,80.30
2022-08-25T14:15:18.471Z,80.80
2022-08-25T14:17:49.576Z,80.30
2022-08-25T14:20:28.569Z,80.20
2022-08-25T14:23:03.245Z,80.00
2022-08-25T14:25:33.429Z,79.90
2022-08-25T14:28:06.732Z,79.90
2022-08-25T14:30:38.923Z,80.70
2022-08-25T14:33:06.703Z,79.80
2022-08-25T14:35:34.479Z,80.80
2022-08-25T14:38:10.090Z,80.80
2022-08-25T14:40:37.321Z,81.20
2022-08-25T14:43:04.185Z,81.60
2022-08-25T14:45:31.821Z,81.50
2022-08-25T14:48:05.286Z,81.40
2022-08-25T14:50:37.961Z,81.30
2022-08-25T14:53:08.390Z,81.10
2022-08-25T14:55:35.172Z,81.00
2022-08-25T14:58:02.189Z,81.20
2022-08-25T15:00:29.170Z,80.90
2022-08-25T15:03:08.943Z,81.10
2022-08-25T15:05:35.562Z,81.20
2022-08-25T15:08:22.601Z,81.20
2022-08-25T15:10:49.258Z,81.10
2022-08-25T15:13:15.902Z,81.10
2022-08-25T15:15:52.621Z,81.00
2022-08-25T15:18:20.816Z,81.00
2022-08-25T15:20:49.914Z,80.80
2022-08-25T15:23:18.337Z,80.90
2022-08-25T15:25:47.313Z,80.40
2022-08-25T15:28:17.212Z,80.70
2022-08-25T15:30:45.830Z,81.00
2022-08-25T15:33:13.524Z,81.00
2022-08-25T15:38:08.065Z,81.20
2022-08-25T15:40:37.345Z,81.10
2022-08-25T15:43:04.236Z,81.10
2022-08-25T15:45:31.454Z,81.20
2022-08-25T15:47:58.201Z,81.10
2022-08-25T15:50:26.696Z,81.10
2022-08-25T15:52:53.460Z,81.10
2022-08-25T15:55:20.888Z,81.10
2022-08-25T15:57:49.742Z,81.10
2022-08-25T16:00:18.021Z,81.30
2022-08-25T16:02:45.524Z,81.20
2022-08-25T16:05:13.710Z,81.00
2022-08-25T16:07:42.813Z,81.10
2022-08-25T16:12:39.915Z,81.10
2022-08-25T16:17:40.818Z,81.20
2022-08-25T16:20:12.635Z,81.50
2022-08-25T16:25:17.157Z,81.50
2022-08-25T16:27:44.259Z,82.00
2022-08-25T16:30:16.838Z,82.10
2022-08-25T16:32:44.835Z,82.30
2022-08-25T16:35:12.906Z,82.30
2022-08-25T16:37:39.985Z,82.30
2022-08-25T16:40:07.855Z,82.40
2022-08-25T16:42:35.013Z,82.50
2022-08-25T16:45:01.778Z,82.30
2022-08-25T16:47:36.951Z,82.20
2022-08-25T16:50:06.658Z,82.10
2022-08-25T16:52:51.949Z,82.10
2022-08-25T16:55:19.191Z,82.00
2022-08-25T16:57:48.653Z,82.10
2022-08-25T17:00:20.036Z,82.10
2022-08-25T17:02:47.581Z,82.20
2022-08-25T17:05:15.294Z,82.40
2022-08-25T17:07:41.953Z,82.50
2022-08-25T17:10:12.445Z,82.30
2022-08-25T17:12:39.594Z,81.40
2022-08-25T17:15:07.515Z,82.00
2022-08-25T17:17:36.229Z,82.00
2022-08-25T17:20:04.700Z,81.80
2022-08-25T17:22:31.818Z,81.90
2022-08-25T17:24:59.405Z,81.80
2022-08-25T17:27:28.224Z,81.90
2022-08-25T17:29:55.921Z,81.90
2022-08-25T17:32:28.965Z,81.90
2022-08-25T17:34:57.593Z,81.80
2022-08-25T17:37:24.712Z,81.70
2022-08-25T17:40:02.728Z,81.80
2022-08-25T17:42:31.514Z,82.40
2022-08-25T17:44:58.162Z,81.70
2022-08-25T17:47:24.885Z,81.90
2022-08-25T17:49:51.563Z,81.90
2022-08-25T17:52:20.567Z,81.90
2022-08-25T17:54:49.275Z,81.90
2022-08-25T17:57:16.059Z,81.90
2022-08-25T17:59:42.635Z,81.90
2022-08-25T18:02:09.602Z,82.40
2022-08-25T18:04:40.413Z,81.80
2022-08-25T18:07:07.396Z,81.80
2022-08-25T18:09:34.370Z,81.80
2022-08-25T18:12:01.056Z,81.70
2022-08-25T18:14:27.720Z,81.60
2022-08-25T18:16:54.392Z,81.70
2022-08-25T18:19:21.207Z,81.80
2022-08-25T18:21:48.179Z,81.80
2022-08-25T18:24:14.865Z,81.90
2022-08-25T18:26:42.283Z,81.70
2022-08-25T18:29:12.758Z,81.80
2022-08-25T18:31:41.245Z,81.80
2022-08-25T18:34:10.829Z,81.90
2022-08-25T18:36:38.765Z,81.90
2022-08-25T18:39:24.695Z,81.90
2022-08-25T18:41:51.684Z,81.90
2022-08-25T18:44:18.843Z,81.70
2022-08-25T18:46:46.363Z,81.70
2022-08-25T18:49:15.637Z,81.70
2022-08-25T18:51:44.752Z,81.70
2022-08-25T18:54:23.133Z,81.90
2022-08-25T18:56:52.038Z,81.90
2022-08-25T18:59:19.295Z,81.90
2022-08-25T19:01:46.462Z,81.90
2022-08-25T19:04:14.890Z,81.90
2022-08-25T19:06:43.775Z,81.90
2022-08-25T19:09:10.856Z,82.00
2022-08-25T19:11:38.286Z,81.90
2022-08-25T19:14:12.010Z,82.80
2022-08-25T19:16:42.300Z,81.90
2022-08-25T19:19:12.937Z,82.00
2022-08-25T19:21:41.049Z,82.00
2022-08-25T19:24:09.018Z,82.00
2022-08-25T19:26:36.893Z,82.00
2022-08-25T19:29:15.775Z,82.00
2022-08-25T19:31:45.399Z,81.90
2022-08-25T19:34:18.640Z,82.00
2022-08-25T19:36:47.371Z,82.00
2022-08-25T19:39:15.749Z,82.10
2022-08-25T19:41:44.326Z,82.10
2022-08-25T19:44:14.463Z,82.10
2022-08-25T19:46:43.106Z,82.00
2022-08-25T19:49:18.255Z,82.00
2022-08-25T19:51:50.592Z,82.00
2022-08-25T19:54:22.063Z,81.70
2022-08-25T19:56:54.706Z,81.40
2022-08-25T19:59:42.534Z,81.30
2022-08-25T20:02:13.343Z,80.80
2022-08-25T20:04:43.220Z,80.30
2022-08-25T20:07:16.620Z,80.60
2022-08-25T20:09:43.374Z,80.20
2022-08-25T20:12:12.363Z,79.60
2022-08-25T20:14:40.164Z,79.00
2022-08-25T20:17:23.284Z,78.90
2022-08-25T20:19:52.366Z,78.40
2022-08-25T20:22:19.985Z,78.00
2022-08-25T20:24:51.058Z,78.30
2022-08-25T20:27:34.245Z,78.20
2022-08-25T20:30:02.803Z,78.40
2022-08-25T20:32:31.283Z,78.20
2022-08-25T20:34:57.997Z,78.20
2022-08-25T20:37:25.673Z,78.40
2022-08-25T20:39:52.728Z,77.90
2022-08-25T20:42:19.514Z,77.80
2022-08-25T20:44:46.953Z,77.50
2022-08-25T20:47:14.880Z,77.80
2022-08-25T20:49:45.178Z,77.90
2022-08-25T20:52:13.920Z,77.80
2022-08-25T20:54:49.306Z,78.10
2022-08-25T20:57:17.009Z,78.20
2022-08-25T20:59:44.073Z,78.60
2022-08-25T21:02:10.989Z,78.60
2022-08-25T21:04:39.620Z,78.50
2022-08-25T21:07:16.988Z,78.30
2022-08-25T21:09:43.570Z,78.10
2022-08-25T21:12:10.245Z,78.00
2022-08-25T21:14:39.068Z,78.00
2022-08-25T21:17:05.812Z,78.10
2022-08-25T21:19:33.370Z,78.00
2022-08-25T21:22:00.406Z,77.90
2022-08-25T21:24:28.474Z,78.00
2022-08-25T21:26:57.903Z,78.20
2022-08-25T21:29:28.423Z,78.00
2022-08-25T21:31:58.412Z,78.10
2022-08-25T21:34:25.068Z,77.90
2022-08-25T21:36:57.555Z,78.00
2022-08-25T21:39:26.153Z,77.80
2022-08-25T21:41:53.658Z,78.00
2022-08-25T21:44:20.387Z,77.90
2022-08-25T21:46:53.923Z,77.80
2022-08-25T21:49:22.399Z,77.80
2022-08-25T21:51:59.362Z,78.00
2022-08-25T21:54:27.231Z,77.90
2022-08-25T21:56:59.661Z,78.00
2022-08-25T21:59:30.151Z,78.70
2022-08-25T22:02:02.159Z,78.00
2022-08-25T22:04:29.317Z,78.20
2022-08-25T22:06:58.431Z,78.10
2022-08-25T22:09:26.343Z,78.10
2022-08-25T22:11:55.532Z,78.30
2022-08-25T22:14:24.068Z,78.40
2022-08-25T22:16:53.527Z,78.30
2022-08-25T22:19:21.425Z,78.40
2022-08-25T22:21:50.820Z,78.20
2022-08-25T22:24:18.165Z,78.40
2022-08-25T22:26:47.364Z,78.50
2022-08-25T22:29:14.613Z,78.40
2022-08-25T22:31:53.004Z,78.40
2022-08-25T22:34:19.793Z,78.30
2022-08-25T22:36:58.913Z,78.30
2022-08-25T22:39:26.765Z,78.20
2022-08-25T22:41:53.794Z,78.30
2022-08-25T22:44:20.390Z,78.30
2022-08-25T22:46:46.983Z,78.30
2022-08-25T22:49:13.944Z,78.40
2022-08-25T22:51:40.994Z,78.30
2022-08-25T22:54:09.515Z,78.30
2022-08-25T22:56:37.609Z,78.20
2022-08-25T22:59:10.378Z,78.20
2022-08-25T23:01:37.456Z,78.30
2022-08-25T23:04:05.802Z,78.30
2022-08-25T23:06:34.297Z,78.40
2022-08-25T23:09:02.030Z,78.30
2022-08-25T23:11:28.958Z,78.40
2022-08-25T23:13:57.889Z,78.40
2022-08-25T23:16:25.018Z,78.40
2022-08-25T23:18:51.803Z,78.40
2022-08-25T23:21:40.922Z,78.40
2022-08-25T23:24:10.816Z,78.50
2022-08-25T23:26:38.372Z,78.60
2022-08-25T23:29:18.669Z,78.70
2022-08-25T23:31:47.571Z,78.80
2022-08-25T23:34:15.790Z,78.80
2022-08-25T23:36:43.244Z,78.80
2022-08-25T23:39:11.101Z,78.90
2022-08-25T23:41:37.750Z,78.80
2022-08-25T23:44:05.817Z,78.80
2022-08-25T23:46:34.808Z,78.80
2022-08-25T23:49:03.310Z,78.90
2022-08-25T23:51:33.447Z,78.90
2022-08-25T23:54:03.897Z,78.90
2022-08-25T23:56:30.605Z,78.80
2022-08-25T23:58:57.347Z,79.00
